Time;durP1;ratioP1;P1;durP2;ratioP2;P2;SDS_P1;SDS_P2;PMS_P1;PMS_P2;Temp;Humidity;BMP_temperature;BMP_pressure;BME280_temperature;BME280_humidity;BME280_pressure;Samples;Min_cycle;Max_cycle;Signal;HPM_P1;HPM_P2
2023/03/16 00:00:46;;;;;;;;;13.00;12.25;;;;;6.85;56.10;101698.31;5029699;28;11467;-68
2023/03/16 00:03:18;;;;;;;;;10.75;8.75;;;;;6.80;56.48;101684.50;5028538;28;11498;-66
2023/03/16 00:05:48;;;;;;;;;10.75;9.75;;;;;6.84;56.49;101679.72;5026187;28;11457;-67
2023/03/16 00:08:16;;;;;;;;;12.50;11.50;;;;;6.85;56.27;101682.25;5019671;28;11479;-66
2023/03/16 00:10:46;;;;;;;;;12.50;12.50;;;;;6.82;56.21;101677.19;5028795;28;12254;-64
2023/03/16 00:13:14;;;;;;;;;10.00;10.00;;;;;6.83;56.55;101678.03;5025631;28;11623;-65
2023/03/16 00:15:48;;;;;;;;;13.00;12.75;;;;;6.84;56.54;101680.53;5027752;28;11498;-65
2023/03/16 00:18:15;;;;;;;;;9.75;8.75;;;;;6.83;56.94;101664.66;5026971;28;11589;-64
2023/03/16 00:20:41;;;;;;;;;10.50;9.25;;;;;6.86;56.53;101659.00;5024760;28;11472;-65
2023/03/16 00:23:08;;;;;;;;;11.00;9.00;;;;;6.86;57.17;101670.53;5035123;28;11625;-64
2023/03/16 00:25:34;;;;;;;;;12.75;10.25;;;;;6.76;56.90;101661.72;5027763;28;11458;-65
2023/03/16 00:28:02;;;;;;;;;13.00;13.00;;;;;6.69;56.21;101649.94;5043374;28;11534;-64
2023/03/16 00:30:31;;;;;;;;;9.75;6.50;;;;;6.71;56.95;101650.63;5036201;28;11472;-65
2023/03/16 00:32:58;;;;;;;;;10.50;10.50;;;;;6.77;57.18;101649.22;5025310;28;11486;-66
2023/03/16 00:35:24;;;;;;;;;9.00;9.00;;;;;6.76;56.87;101653.69;5035208;28;11466;-67
2023/03/16 00:37:51;;;;;;;;;9.25;9.25;;;;;6.75;57.02;101649.34;5044300;28;11440;-65
2023/03/16 00:40:18;;;;;;;;;10.50;10.50;;;;;6.75;56.53;101652.00;5026344;28;11561;-64
2023/03/16 00:42:44;;;;;;;;;12.00;8.50;;;;;6.78;57.22;101638.34;5027958;28;11533;-66
2023/03/16 00:45:11;;;;;;;;;8.25;8.25;;;;;6.80;56.89;101636.34;5033222;28;11444;-66
2023/03/16 00:47:38;;;;;;;;;12.00;9.50;;;;;6.79;57.55;101633.81;5029319;28;11471;-66
2023/03/16 00:50:05;;;;;;;;;11.50;9.25;;;;;6.84;56.84;101627.03;5028403;28;11467;-66
2023/03/16 00:52:34;;;;;;;;;12.50;11.00;;;;;6.79;56.91;101625.81;5024906;28;11421;-65
2023/03/16 00:55:03;;;;;;;;;9.25;9.25;;;;;6.80;57.78;101622.97;5028512;28;11479;-66
2023/03/16 00:57:30;;;;;;;;;12.00;10.25;;;;;6.82;57.47;101625.50;5030333;28;11494;-66
2023/03/16 00:59:58;;;;;;;;;11.50;10.50;;;;;6.78;57.36;101618.78;5024433;28;11620;-66
2023/03/16 01:02:25;;;;;;;;;15.50;11.25;;;;;6.74;57.57;101609.38;5027354;28;11430;-67
2023/03/16 01:04:53;;;;;;;;;10.50;10.50;;;;;6.74;57.90;101615.56;5027668;28;11479;-67
2023/03/16 01:07:20;;;;;;;;;9.75;8.75;;;;;6.76;57.50;101618.06;5019858;28;11493;-66
2023/03/16 01:09:47;;;;;;;;;8.75;8.00;;;;;6.78;57.90;101611.59;5028720;28;12251;-66
2023/03/16 01:12:16;;;;;;;;;18.00;11.50;;;;;6.81;58.19;101613.97;5027299;28;12169;-67
2023/03/16 01:14:46;;;;;;;;;9.50;9.50;;;;;6.82;58.10;101607.63;5028299;28;11634;-67
2023/03/16 01:17:14;;;;;;;;;11.00;10.00;;;;;6.87;58.30;101596.44;5029252;28;12214;-66
2023/03/16 01:19:42;;;;;;;;;11.00;8.00;;;;;6.86;58.31;101597.44;5021434;28;13196;-67
2023/03/16 01:22:10;;;;;;;;;16.25;12.00;;;;;6.85;58.08;101591.25;5022432;28;12323;-67
2023/03/16 01:24:38;;;;;;;;;11.50;9.00;;;;;6.82;58.65;101590.72;5022061;28;11558;-67
2023/03/16 01:27:06;;;;;;;;;8.50;8.50;;;;;6.85;58.36;101587.75;5021505;28;11457;-67
2023/03/16 01:29:33;;;;;;;;;7.00;6.75;;;;;6.87;58.71;101593.78;5025011;28;11452;-66
2023/03/16 01:32:00;;;;;;;;;11.00;9.00;;;;;6.86;58.52;101579.56;5031180;28;11469;-66
2023/03/16 01:34:27;;;;;;;;;12.25;11.00;;;;;6.86;58.46;101578.72;5020829;28;11581;-66
2023/03/16 01:36:55;;;;;;;;;12.75;11.75;;;;;6.82;58.94;101578.19;5024909;28;11926;-66
2023/03/16 01:39:25;;;;;;;;;15.00;14.50;;;;;6.79;58.83;101567.78;5044185;28;11471;-68
2023/03/16 01:41:52;;;;;;;;;4.25;4.00;;;;;6.77;59.25;101567.09;5029440;28;12256;-66
2023/03/16 01:44:23;;;;;;;;;13.25;11.50;;;;;6.77;59.59;101560.91;5032540;28;11471;-66
2023/03/16 01:46:50;;;;;;;;;11.25;11.25;;;;;6.76;59.41;101553.84;5029118;28;11528;-67
2023/03/16 01:49:22;;;;;;;;;11.75;8.25;;;;;6.64;59.40;101547.88;5040742;28;11550;-67
2023/03/16 01:51:55;;;;;;;;;11.75;9.25;;;;;6.66;60.09;101553.94;5047846;28;11486;-66
2023/03/16 01:54:49;;;;;;;;;16.75;13.00;;;;;6.68;59.61;101544.78;5026748;28;11563;-67
2023/03/16 01:57:19;;;;;;;;;11.75;11.00;;;;;6.71;59.72;101551.63;5028083;28;11473;-67
2023/03/16 01:59:58;;;;;;;;;12.50;10.00;;;;;6.63;60.11;101544.34;5045665;28;11454;-65
2023/03/16 02:02:29;;;;;;;;;7.50;5.50;;;;;6.67;59.85;101539.56;5030649;28;11475;-66
2023/03/16 02:05:05;;;;;;;;;11.50;11.00;;;;;6.69;60.13;101542.94;5037955;28;11470;-65
2023/03/16 02:07:41;;;;;;;;;17.25;16.00;;;;;6.71;59.89;101535.59;5037768;28;11558;-66
2023/03/16 02:10:10;;;;;;;;;15.50;15.25;;;;;6.72;60.36;101518.53;5026220;28;11463;-66
2023/03/16 02:12:37;;;;;;;;;9.00;9.00;;;;;6.63;60.13;101522.13;5027617;28;11643;-66
2023/03/16 02:15:05;;;;;;;;;14.00;7.00;;;;;6.64;60.96;101518.44;5046848;28;11473;-66
2023/03/16 02:17:35;;;;;;;;;12.25;11.75;;;;;6.66;61.46;101521.81;5031625;28;11508;-66
2023/03/16 02:20:35;;;;;;;;;14.25;14.25;;;;;6.60;61.03;101515.25;5022494;28;11540;-66
2023/03/16 02:23:04;;;;;;;;;12.25;10.00;;;;;6.58;61.05;101514.56;5025699;28;11576;-66
2023/03/16 02:25:41;;;;;;;;;12.00;10.00;;;;;6.57;61.36;101517.41;5029484;28;11498;-66
2023/03/16 02:28:23;;;;;;;;;12.75;9.75;;;;;6.66;61.55;101521.81;5025013;28;12168;-67
2023/03/16 02:30:52;;;;;;;;;11.00;11.00;;;;;6.68;61.96;101517.16;5023845;28;11582;-66
2023/03/16 02:33:20;;;;;;;;;12.50;10.75;;;;;6.60;61.29;101514.38;5036424;28;11455;-67
2023/03/16 02:35:46;;;;;;;;;9.50;9.50;;;;;6.62;62.15;101515.09;5031749;28;11506;-66
2023/03/16 02:38:13;;;;;;;;;14.25;12.00;;;;;6.52;62.03;101508.97;5044287;28;11542;-67
2023/03/16 02:40:57;;;;;;;;;16.75;13.75;;;;;6.53;63.12;101510.66;5025557;28;11517;-67
2023/03/16 02:43:32;;;;;;;;;12.00;11.00;;;;;6.58;63.07;101508.38;5044850;28;11525;-66
2023/03/16 02:46:25;;;;;;;;;13.75;10.50;;;;;6.60;62.65;101507.22;5046805;28;11488;-67
2023/03/16 02:49:07;;;;;;;;;11.50;11.50;;;;;6.57;62.58;101504.84;5028993;28;12247;-66
2023/03/16 02:51:35;;;;;;;;;11.75;11.75;;;;;6.51;63.21;101502.78;5035944;28;11500;-67
2023/03/16 02:54:02;;;;;;;;;12.25;11.00;;;;;6.53;63.40;101508.81;5024739;28;11480;-66
2023/03/16 02:56:31;;;;;;;;;13.75;11.75;;;;;6.46;63.23;101505.06;5031222;28;11641;-65
2023/03/16 02:58:58;;;;;;;;;8.75;8.50;;;;;6.47;64.00;101508.56;5046660;28;11515;-67
2023/03/16 03:01:25;;;;;;;;;12.50;12.50;;;;;6.51;63.98;101496.59;5024988;28;11493;-66
2023/03/16 03:03:51;;;;;;;;;12.00;9.50;;;;;6.51;64.59;101494.75;5046459;28;11497;-66
2023/03/16 03:06:18;;;;;;;;;9.50;9.00;;;;;6.56;64.75;101499.63;5026293;28;11516;-67
2023/03/16 03:08:44;;;;;;;;;11.50;11.25;;;;;6.57;64.51;101496.00;5023496;28;11506;-67
2023/03/16 03:11:11;;;;;;;;;12.50;11.25;;;;;6.55;64.43;101496.13;5046135;28;11518;-66
2023/03/16 03:13:38;;;;;;;;;9.00;9.00;;;;;6.58;64.54;101493.16;5029984;28;12193;-66
2023/03/16 03:16:09;;;;;;;;;16.50;13.25;;;;;6.55;64.61;101482.75;5031014;28;11509;-66
2023/03/16 03:18:36;;;;;;;;;13.75;10.25;;;;;6.54;65.51;101482.91;5028101;28;11562;-66
2023/03/16 03:21:03;;;;;;;;;11.00;11.00;;;;;6.53;65.56;101482.09;5026351;28;11451;-67
2023/03/16 03:23:34;;;;;;;;;10.00;9.00;;;;;6.50;65.62;101477.03;5028690;28;12311;-66
2023/03/16 03:26:01;;;;;;;;;13.50;10.50;;;;;6.42;66.54;101488.47;5035956;28;11496;-67
2023/03/16 03:28:29;;;;;;;;;13.25;10.75;;;;;6.44;66.62;101474.94;5027848;28;11603;-67
2023/03/16 03:30:56;;;;;;;;;12.75;12.00;;;;;6.45;66.65;101471.31;5043674;28;11463;-67
2023/03/16 03:33:22;;;;;;;;;17.50;14.75;;;;;6.43;66.86;101467.91;5028721;28;11516;-66
2023/03/16 03:35:57;;;;;;;;;13.50;11.25;;;;;6.41;67.52;101468.09;5043432;28;11543;-67
2023/03/16 03:38:27;;;;;;;;;16.75;15.00;;;;;6.46;67.94;101469.47;5042522;28;11489;-66
2023/03/16 03:40:58;;;;;;;;;14.50;12.00;;;;;6.36;67.82;101464.16;5044969;28;11475;-66
2023/03/16 03:43:27;;;;;;;;;10.00;9.50;;;;;6.31;68.77;101447.75;5028872;28;11662;-67
2023/03/16 03:46:02;;;;;;;;;14.00;11.00;;;;;6.36;68.46;101456.16;5039609;28;11531;-65
2023/03/16 03:48:32;;;;;;;;;11.75;11.50;;;;;6.34;68.78;101458.16;5025882;28;11468;-66
2023/03/16 03:51:01;;;;;;;;;13.00;9.00;;;;;6.36;68.68;101454.34;5027042;28;11516;-66
2023/03/16 03:53:50;;;;;;;;;13.50;13.50;;;;;6.37;68.19;101457.84;5027795;28;11484;-67
2023/03/16 03:56:22;;;;;;;;;10.00;9.50;;;;;6.26;68.85;101450.03;5043676;28;11555;-66
2023/03/16 03:58:49;;;;;;;;;13.00;12.75;;;;;6.23;68.99;101448.50;5035163;28;11571;-67
2023/03/16 04:01:26;;;;;;;;;15.50;12.00;;;;;6.27;69.25;101459.72;5024190;28;11485;-67
2023/03/16 04:03:52;;;;;;;;;11.00;11.00;;;;;6.29;69.31;101445.22;5022106;28;11478;-66
2023/03/16 04:06:19;;;;;;;;;13.50;11.00;;;;;6.21;69.66;101442.47;5030160;28;11482;-66
2023/03/16 04:08:45;;;;;;;;;13.00;13.00;;;;;6.22;69.63;101438.81;5024574;28;11516;-67
2023/03/16 04:11:16;;;;;;;;;16.50;14.00;;;;;6.21;70.01;101445.16;5021270;28;11476;-67
2023/03/16 04:13:43;;;;;;;;;12.50;12.00;;;;;6.22;69.50;101441.47;5029131;28;11643;-67
2023/03/16 04:16:10;;;;;;;;;11.50;11.00;;;;;6.24;69.74;101441.31;5025078;28;11501;-67
2023/03/16 04:18:41;;;;;;;;;10.50;9.00;;;;;6.28;69.75;101432.88;5036698;28;11672;-67
2023/03/16 04:21:14;;;;;;;;;11.75;10.00;;;;;6.25;69.66;101427.81;5025679;28;11570;-67
2023/03/16 04:23:41;;;;;;;;;12.75;8.50;;;;;6.27;69.98;101424.97;5025134;28;11494;-67
2023/03/16 04:26:08;;;;;;;;;10.75;9.75;;;;;6.27;69.94;101423.13;5041835;28;11557;-65
2023/03/16 04:28:35;;;;;;;;;13.50;11.50;;;;;6.21;69.52;101423.75;5026261;28;11440;-65
2023/03/16 04:31:05;;;;;;;;;12.75;11.75;;;;;6.23;69.78;101411.06;5028311;28;12286;-65
2023/03/16 04:33:41;;;;;;;;;15.50;11.00;;;;;6.16;70.12;101418.03;5027708;28;11481;-66
2023/03/16 04:36:08;;;;;;;;;9.00;7.75;;;;;6.13;70.15;101404.97;5040794;28;11472;-67
2023/03/16 04:38:36;;;;;;;;;12.50;9.50;;;;;6.13;69.77;101402.28;5027152;28;11462;-66
2023/03/16 04:41:04;;;;;;;;;11.75;10.00;;;;;6.11;70.61;101401.59;5027775;28;11498;-66
2023/03/16 04:43:35;;;;;;;;;11.50;9.75;;;;;6.12;70.66;101400.63;5025431;28;11499;-66
2023/03/16 04:46:15;;;;;;;;;10.50;9.50;;;;;6.07;71.07;101402.88;5031457;28;11513;-65
2023/03/16 04:48:41;;;;;;;;;12.75;11.25;;;;;6.09;70.69;101406.25;5028515;28;11617;-66
2023/03/16 04:51:09;;;;;;;;;10.25;10.25;;;;;6.07;70.89;101406.41;5028782;28;11513;-66
2023/03/16 04:53:40;;;;;;;;;8.75;8.75;;;;;6.14;71.31;101409.31;5032141;28;11596;-67
2023/03/16 04:56:18;;;;;;;;;11.00;11.00;;;;;6.18;70.38;101406.19;5024885;28;11492;-66
2023/03/16 04:58:50;;;;;;;;;9.75;8.00;;;;;6.26;70.37;101409.94;5043536;28;11463;-67
2023/03/16 05:01:18;;;;;;;;;8.75;8.75;;;;;6.24;70.32;101409.22;5032237;28;11506;-66
2023/03/16 05:03:46;;;;;;;;;10.50;9.50;;;;;6.22;70.73;101406.72;5044501;28;11485;-66
2023/03/16 05:06:12;;;;;;;;;11.25;8.75;;;;;6.20;71.26;101411.41;5023061;28;11477;-66
2023/03/16 05:08:40;;;;;;;;;9.25;9.25;;;;;6.22;71.55;101412.06;5027337;28;11443;-66
2023/03/16 05:11:07;;;;;;;;;9.00;6.50;;;;;6.17;71.29;101412.53;5019997;28;11432;-65
2023/03/16 05:13:39;;;;;;;;;6.75;5.75;;;;;6.16;71.82;101405.50;5020071;28;11431;-65
2023/03/16 05:16:06;;;;;;;;;11.75;8.75;;;;;6.19;71.90;101404.34;5033752;28;11579;-66
2023/03/16 05:18:36;;;;;;;;;5.50;5.50;;;;;6.23;71.88;101403.03;5024357;28;11462;-65
2023/03/16 05:21:03;;;;;;;;;9.00;8.50;;;;;6.24;72.28;101399.41;5022336;28;11459;-65
2023/03/16 05:23:41;;;;;;;;;8.00;6.50;;;;;6.12;72.68;101404.13;5040606;28;11523;-65
2023/03/16 05:26:08;;;;;;;;;12.25;9.75;;;;;6.19;72.45;101399.84;5021800;28;11436;-66
2023/03/16 05:28:36;;;;;;;;;8.00;8.00;;;;;6.17;73.04;101392.97;5026692;28;11551;-65
2023/03/16 05:31:05;;;;;;;;;8.75;7.50;;;;;6.19;72.62;101397.16;5010813;28;11548;-65
2023/03/16 05:33:40;;;;;;;;;7.00;7.00;;;;;6.15;72.86;101390.44;5041949;28;11430;-65
2023/03/16 05:36:10;;;;;;;;;10.50;8.00;;;;;6.13;73.03;101386.25;5030936;28;11457;-65
2023/03/16 05:38:38;;;;;;;;;8.25;7.00;;;;;6.16;73.28;101383.28;5035851;28;11543;-66
2023/03/16 05:41:08;;;;;;;;;10.50;9.25;;;;;6.15;73.48;101374.41;5037989;28;11545;-66
2023/03/16 05:43:58;;;;;;;;;11.00;9.00;;;;;6.10;74.00;101374.03;5035904;28;11552;-65
2023/03/16 05:46:34;;;;;;;;;6.00;6.00;;;;;6.10;74.04;101370.53;5034663;28;11495;-67
2023/03/16 05:49:03;;;;;;;;;12.75;9.50;;;;;6.14;73.78;101369.22;5023613;28;11489;-67
2023/03/16 05:51:30;;;;;;;;;5.25;5.25;;;;;6.06;73.89;101366.47;5025631;28;12290;-67
2023/03/16 05:53:59;;;;;;;;;7.50;7.50;;;;;5.94;74.09;101358.66;5022562;28;11440;-66
2023/03/16 05:56:40;;;;;;;;;8.50;6.50;;;;;5.94;74.13;101361.34;5021912;28;11522;-67
2023/03/16 05:59:07;;;;;;;;;7.50;7.50;;;;;5.96;74.22;101363.88;5026149;28;11472;-67
2023/03/16 06:01:34;;;;;;;;;4.75;4.75;;;;;6.01;75.03;101363.41;5039207;28;11473;-67
2023/03/16 06:04:02;;;;;;;;;9.25;5.75;;;;;5.94;74.62;101363.16;5040353;28;11475;-67
2023/03/16 06:06:32;;;;;;;;;5.00;5.00;;;;;5.91;74.90;101358.09;5029978;28;13227;-66
2023/03/16 06:09:05;;;;;;;;;5.00;3.50;;;;;5.97;75.01;101343.34;5024484;28;11523;-65
2023/03/16 06:11:32;;;;;;;;;8.25;7.50;;;;;6.08;74.86;101357.31;5025530;28;11468;-69
2023/03/16 06:14:00;;;;;;;;;7.00;5.00;;;;;6.12;74.72;101363.19;5024666;28;11453;-68
2023/03/16 06:16:27;;;;;;;;;5.25;5.00;;;;;6.06;74.88;101359.28;5025716;28;11523;-66
2023/03/16 06:18:55;;;;;;;;;5.00;5.00;;;;;6.06;74.76;101353.09;5021619;28;11474;-66
2023/03/16 06:21:25;;;;;;;;;5.25;5.25;;;;;5.98;75.17;101358.38;5037276;28;11446;-65
2023/03/16 06:23:55;;;;;;;;;5.25;5.25;;;;;5.84;75.47;101354.38;5035225;28;11449;-68
2023/03/16 06:26:21;;;;;;;;;5.50;5.50;;;;;5.90;76.10;101357.25;5025825;28;11445;-66
2023/03/16 06:28:48;;;;;;;;;6.75;4.75;;;;;5.89;75.83;101357.41;5042971;28;11443;-67
2023/03/16 06:31:15;;;;;;;;;5.50;5.50;;;;;5.93;75.73;101350.81;5033739;28;11491;-67
2023/03/16 06:33:44;;;;;;;;;5.00;4.50;;;;;5.96;75.76;101353.19;5027992;28;12194;-64
2023/03/16 06:36:10;;;;;;;;;4.50;4.50;;;;;5.90;75.40;101343.06;5030386;28;11453;-65
2023/03/16 06:38:42;;;;;;;;;5.00;4.25;;;;;5.86;76.23;101355.88;5024013;28;11446;-65
2023/03/16 06:41:23;;;;;;;;;4.50;4.50;;;;;5.82;76.34;101338.47;5030932;28;12282;-66
2023/03/16 06:43:50;;;;;;;;;4.00;4.00;;;;;5.84;76.35;101322.31;5030867;28;11467;-66
2023/03/16 06:46:16;;;;;;;;;3.00;3.00;;;;;5.83;76.46;101332.13;5014157;28;11579;-68
2023/03/16 06:48:43;;;;;;;;;2.50;2.50;;;;;5.94;76.05;101331.09;5028466;28;11441;-67
2023/03/16 06:51:09;;;;;;;;;2.50;2.50;;;;;5.99;75.83;101323.47;5022354;28;11443;-68
2023/03/16 06:53:36;;;;;;;;;4.75;4.75;;;;;6.01;76.13;101326.84;5018139;28;11513;-67
2023/03/16 06:56:02;;;;;;;;;5.00;5.00;;;;;6.04;75.73;101317.69;5030575;28;11465;-68
2023/03/16 06:58:33;;;;;;;;;4.25;4.25;;;;;6.05;75.66;101325.53;5025875;28;11458;-68
2023/03/16 07:01:02;;;;;;;;;5.00;5.00;;;;;6.05;75.62;101327.38;5029216;28;11442;-67
2023/03/16 07:03:30;;;;;;;;;5.00;5.00;;;;;6.11;75.21;101327.59;5032081;28;11567;-68
2023/03/16 07:06:02;;;;;;;;;4.75;4.25;;;;;6.16;74.65;101329.81;5030866;28;11517;-69
2023/03/16 07:08:30;;;;;;;;;10.50;4.50;;;;;6.21;74.87;101337.38;5042921;28;11976;-68
2023/03/16 07:10:56;;;;;;;;;3.50;3.50;;;;;6.12;73.68;101321.28;5012214;28;11499;-68
2023/03/16 07:13:23;;;;;;;;;4.75;4.75;;;;;6.06;73.74;101319.19;5014657;28;11499;-67
2023/03/16 07:15:53;;;;;;;;;4.75;4.25;;;;;6.14;73.26;101323.78;5045582;28;11224;-68
2023/03/16 07:18:24;;;;;;;;;5.75;4.25;;;;;6.11;73.73;101319.56;5042221;28;11493;-68
2023/03/16 07:20:53;;;;;;;;;4.00;2.00;;;;;6.13;73.34;101317.59;5032761;28;11701;-67
2023/03/16 07:23:23;;;;;;;;;4.75;4.50;;;;;6.22;72.94;101321.19;5030120;28;12285;-68
2023/03/16 07:25:51;;;;;;;;;4.50;2.50;;;;;6.21;73.14;101318.66;5046731;28;11454;-68
2023/03/16 07:28:19;;;;;;;;;4.00;4.00;;;;;6.25;72.18;101325.38;5030238;28;11449;-68
2023/03/16 07:30:46;;;;;;;;;3.50;2.25;;;;;6.19;73.16;101326.81;5026432;28;11449;-68
2023/03/16 07:33:32;;;;;;;;;4.00;4.00;;;;;6.18;73.03;101314.47;5030393;28;12283;-68
2023/03/16 07:36:04;;;;;;;;;4.00;4.00;;;;;6.06;73.44;101310.34;5030457;28;11245;-67
2023/03/16 07:38:36;;;;;;;;;5.75;4.00;;;;;6.03;74.13;101319.50;5024934;28;11555;-67
2023/03/16 07:41:03;;;;;;;;;2.50;2.00;;;;;6.10;74.44;101325.09;5025591;28;11450;-67
2023/03/16 07:43:32;;;;;;;;;10.50;7.00;;;;;6.06;74.45;101329.06;5031754;28;11444;-68
2023/03/16 07:46:00;;;;;;;;;7.75;7.75;;;;;6.05;74.38;101309.50;5045261;28;11525;-67
2023/03/16 07:48:28;;;;;;;;;6.25;6.00;;;;;6.07;74.88;101317.38;5041574;28;12245;-67
2023/03/16 07:50:58;;;;;;;;;8.00;8.00;;;;;6.12;74.41;101331.13;5010407;28;11489;-68
2023/03/16 07:53:25;;;;;;;;;7.00;7.00;;;;;6.08;74.46;101319.91;5027101;28;11588;-68
2023/03/16 07:56:07;;;;;;;;;9.75;9.25;;;;;6.24;74.10;101326.34;5009728;28;11473;-67
2023/03/16 07:58:37;;;;;;;;;6.50;6.00;;;;;6.27;74.04;101308.19;5032291;28;11492;-68
2023/03/16 08:01:03;;;;;;;;;9.75;7.50;;;;;6.33;73.43;101310.25;5046385;28;12206;-68
2023/03/16 08:03:30;;;;;;;;;4.00;4.00;;;;;6.43;73.46;101321.69;5023309;28;11464;-68
2023/03/16 08:05:57;;;;;;;;;7.00;4.00;;;;;6.39;73.05;101316.78;5026092;28;11220;-68
2023/03/16 08:08:25;;;;;;;;;7.25;4.75;;;;;6.37;73.11;101311.63;5030443;28;12136;-68
2023/03/16 08:10:52;;;;;;;;;2.00;1.00;;;;;6.43;72.80;101305.63;5029156;28;11221;-67
2023/03/16 08:13:27;;;;;;;;;4.00;3.00;;;;;6.48;72.88;101315.03;5011223;28;11065;-68
2023/03/16 08:16:00;;;;;;;;;5.00;5.00;;;;;6.48;72.85;101304.31;5026219;28;11104;-68
2023/03/16 08:18:33;;;;;;;;;2.00;2.00;;;;;6.57;72.44;101308.75;5028376;28;11477;-68
2023/03/16 08:21:00;;;;;;;;;4.50;4.50;;;;;6.60;72.69;101320.00;5046058;28;11173;-68
2023/03/16 08:23:28;;;;;;;;;7.50;4.00;;;;;6.50;72.23;101318.41;5026517;28;11079;-67
2023/03/16 08:25:56;;;;;;;;;6.75;4.25;;;;;6.48;72.48;101326.56;5009319;28;11383;-68
2023/03/16 08:28:24;;;;;;;;;3.00;3.00;;;;;6.59;72.20;101330.81;5029830;28;11502;-68
2023/03/16 08:30:54;;;;;;;;;4.50;1.00;;;;;6.69;71.92;101331.59;5022205;28;11792;-68
2023/03/16 08:33:46;;;;;;;;;6.75;5.00;;;;;6.66;71.90;101324.69;5008284;28;11119;-68
2023/03/16 08:36:16;;;;;;;;;3.75;3.75;;;;;6.71;70.81;101318.88;5009322;28;11070;-68
2023/03/16 08:38:46;;;;;;;;;6.50;4.25;;;;;6.79;71.02;101326.13;5032387;28;12092;-68
2023/03/16 08:41:34;;;;;;;;;5.00;4.50;;;;;6.86;70.67;101311.94;5045898;28;11124;-68
2023/03/16 08:44:06;;;;;;;;;5.00;4.00;;;;;6.84;70.49;101311.25;5036101;28;11267;-68
2023/03/16 08:46:33;;;;;;;;;5.25;5.25;;;;;6.88;70.45;101311.78;5011551;28;11149;-68
2023/03/16 08:49:01;;;;;;;;;5.50;4.50;;;;;6.84;70.23;101308.56;5017906;28;11326;-68
2023/03/16 08:51:28;;;;;;;;;5.50;5.50;;;;;6.88;70.08;101296.56;5045804;28;10975;-66
2023/03/16 08:53:54;;;;;;;;;5.25;4.00;;;;;6.96;69.55;101297.59;5021760;28;11210;-68
2023/03/16 08:56:21;;;;;;;;;11.50;5.00;;;;;6.99;69.83;101297.28;5010599;28;11024;-68
2023/03/16 08:58:48;;;;;;;;;4.00;4.00;;;;;6.95;69.48;101302.13;5011094;28;11121;-68
2023/03/16 09:01:19;;;;;;;;;8.00;5.00;;;;;6.99;69.68;101298.13;5020658;28;11130;-67
2023/03/16 09:03:45;;;;;;;;;4.50;4.50;;;;;6.94;69.08;101298.63;5017478;28;11063;-68
2023/03/16 09:06:14;;;;;;;;;6.00;6.00;;;;;6.96;69.30;101295.75;5019990;28;11005;-67
2023/03/16 09:08:43;;;;;;;;;4.00;4.00;;;;;7.03;68.92;101291.47;5021798;28;11043;-69
2023/03/16 09:11:15;;;;;;;;;6.25;5.75;;;;;7.00;68.68;101293.63;5018507;28;11051;-68
2023/03/16 09:13:43;;;;;;;;;5.25;4.00;;;;;6.98;68.12;101299.13;5029542;28;11132;-68
2023/03/16 09:16:11;;;;;;;;;4.25;3.00;;;;;7.03;67.94;101294.13;5011915;28;11032;-68
2023/03/16 09:18:38;;;;;;;;;4.25;4.25;;;;;7.12;68.10;101287.81;5016389;28;11252;-68
2023/03/16 09:21:07;;;;;;;;;5.00;5.00;;;;;7.19;67.13;101286.19;5030224;28;11040;-68
2023/03/16 09:23:36;;;;;;;;;4.00;4.00;;;;;7.16;67.41;101291.84;5024857;28;11052;-68
2023/03/16 09:26:06;;;;;;;;;3.00;3.00;;;;;7.14;67.56;101285.00;5017345;28;11088;-67
2023/03/16 09:28:34;;;;;;;;;5.75;4.25;;;;;7.14;67.19;101272.44;5029204;28;11122;-68
2023/03/16 09:31:02;;;;;;;;;2.75;2.75;;;;;7.15;67.02;101282.16;5040762;28;10982;-67
2023/03/16 09:33:30;;;;;;;;;4.25;4.25;;;;;7.31;67.04;101275.19;5026808;28;10987;-65
2023/03/16 09:35:57;;;;;;;;;3.00;3.00;;;;;7.30;66.79;101274.34;5010730;28;11157;-66
2023/03/16 09:38:27;;;;;;;;;3.50;2.50;;;;;7.34;66.50;101286.41;5014296;28;11075;-66
2023/03/16 09:41:12;;;;;;;;;4.00;3.00;;;;;7.43;66.53;101281.91;5030089;28;10951;-66
2023/03/16 09:43:55;;;;;;;;;11.00;5.00;;;;;7.43;65.75;101280.06;5025254;28;11564;-66
2023/03/16 09:46:33;;;;;;;;;4.00;2.00;;;;;7.67;65.91;101276.63;5029740;28;11071;-66
2023/03/16 09:49:02;;;;;;;;;5.75;4.50;;;;;7.86;65.69;101275.47;5029642;28;10982;-66
2023/03/16 09:51:35;;;;;;;;;5.00;5.00;;;;;7.88;64.33;101267.25;5030040;28;10989;-66
2023/03/16 09:54:12;;;;;;;;;5.00;4.00;;;;;8.05;64.50;101266.25;5020776;28;11651;-67
2023/03/16 09:56:42;;;;;;;;;5.75;4.50;;;;;8.29;63.56;101262.72;5011626;28;10857;-67
2023/03/16 09:59:14;;;;;;;;;6.25;5.00;;;;;8.42;62.80;101270.28;5011467;28;10884;-67
2023/03/16 10:02:14;;;;;;;;;5.00;5.00;;;;;8.45;61.94;101264.59;5009093;28;10734;-66
2023/03/16 10:04:55;;;;;;;;;9.50;7.50;;;;;8.40;61.73;101262.44;5026974;28;10752;-67
2023/03/16 10:07:45;;;;;;;;;3.00;3.00;;;;;8.66;62.17;101262.19;5033692;28;10948;-66
2023/03/16 10:10:43;;;;;;;;;5.25;5.25;;;;;8.81;61.89;101261.50;5014223;28;10747;-66
2023/03/16 10:13:47;;;;;;;;;6.00;2.75;;;;;8.76;60.11;101258.50;5023579;28;11414;-68
2023/03/16 10:16:19;;;;;;;;;4.00;4.00;;;;;8.87;60.77;101253.59;5014497;28;10485;-67
2023/03/16 10:18:49;;;;;;;;;6.50;5.25;;;;;9.05;60.64;101255.22;5033201;28;10508;-67
2023/03/16 10:21:18;;;;;;;;;5.25;5.25;;;;;9.11;60.22;101254.50;5033215;28;10879;-67
2023/03/16 10:23:47;;;;;;;;;4.75;4.75;;;;;9.10;60.30;101248.28;5026367;28;10682;-67
2023/03/16 10:26:43;;;;;;;;;4.75;4.75;;;;;9.17;59.90;101256.50;5013291;28;10585;-66
2023/03/16 10:29:13;;;;;;;;;6.00;4.00;;;;;9.15;59.94;101245.94;5018126;28;10704;-67
2023/03/16 10:31:41;;;;;;;;;5.00;5.00;;;;;9.27;59.94;101251.72;5018758;28;10610;-67
2023/03/16 10:34:09;;;;;;;;;7.00;3.50;;;;;9.43;59.90;101249.97;5031548;28;10811;-67
2023/03/16 10:36:40;;;;;;;;;5.00;5.00;;;;;9.48;59.58;101243.09;5033323;28;10528;-67
2023/03/16 10:39:10;;;;;;;;;8.75;6.75;;;;;9.56;60.10;101240.34;5023185;28;10538;-66
2023/03/16 10:41:40;;;;;;;;;4.00;4.00;;;;;9.61;59.62;101231.75;5024413;28;10618;-67
2023/03/16 10:44:12;;;;;;;;;5.50;5.00;;;;;9.56;59.71;101223.34;5026921;28;10462;-68
2023/03/16 10:46:52;;;;;;;;;1.00;1.00;;;;;9.65;59.33;101220.44;5029374;28;10459;-67
2023/03/16 10:49:24;;;;;;;;;3.50;2.00;;;;;9.59;59.12;101218.47;5021650;28;10445;-66
2023/03/16 10:51:58;;;;;;;;;3.00;2.50;;;;;9.56;58.33;101221.53;5011888;28;10451;-67
2023/03/16 10:54:32;;;;;;;;;5.75;4.00;;;;;9.46;58.76;101214.69;5024262;28;10797;-65
2023/03/16 10:56:59;;;;;;;;;5.00;5.00;;;;;9.49;58.65;101219.72;5032640;28;10519;-65
2023/03/16 10:59:35;;;;;;;;;8.75;6.00;;;;;9.46;58.85;101207.47;5020295;28;10652;-65
2023/03/16 11:02:18;;;;;;;;;5.00;5.00;;;;;9.48;58.97;101207.28;5028887;28;10609;-65
2023/03/16 11:04:46;;;;;;;;;4.25;4.25;;;;;9.25;59.01;101212.66;5027171;28;10716;-66
2023/03/16 11:07:22;;;;;;;;;6.00;6.00;;;;;9.13;59.42;101204.16;5032629;28;10551;-64
2023/03/16 11:09:54;;;;;;;;;5.00;5.00;;;;;9.15;59.48;101204.78;5017991;28;10541;-66
2023/03/16 11:12:27;;;;;;;;;5.25;4.00;;;;;9.27;59.80;101198.00;5011411;28;10461;-64
2023/03/16 11:14:55;;;;;;;;;5.00;5.00;;;;;9.30;59.27;101191.47;5026439;28;10464;-65
2023/03/16 11:17:35;;;;;;;;;4.75;4.50;;;;;9.36;59.19;101180.00;5032384;28;10461;-64
2023/03/16 11:20:11;;;;;;;;;6.25;6.25;;;;;9.32;58.82;101181.38;5031602;28;10583;-64
2023/03/16 11:22:38;;;;;;;;;2.00;2.00;;;;;9.39;58.82;101185.00;5031394;28;10530;-65
2023/03/16 11:25:10;;;;;;;;;9.50;9.00;;;;;9.46;58.95;101182.47;5013119;28;10349;-65
2023/03/16 11:27:50;;;;;;;;;4.00;4.00;;;;;9.57;58.71;101179.38;5012980;28;10781;-65
2023/03/16 11:30:28;;;;;;;;;5.00;2.75;;;;;9.70;58.20;101179.59;5031338;28;10456;-65
2023/03/16 11:32:54;;;;;;;;;4.25;4.25;;;;;9.68;58.35;101178.91;5028516;28;10363;-66
2023/03/16 11:35:36;;;;;;;;;4.00;4.00;;;;;9.68;58.06;101178.91;5017002;28;10316;-65
2023/03/16 11:38:53;;;;;;;;;5.00;2.25;;;;;9.72;57.77;101190.97;5029634;28;10421;-64
2023/03/16 11:41:30;;;;;;;;;6.25;3.50;;;;;9.65;57.40;101185.50;4995497;28;10430;-65
2023/03/16 11:44:11;;;;;;;;;3.00;3.00;;;;;9.72;57.48;101190.97;5017846;28;10486;-65
2023/03/16 11:46:56;;;;;;;;;2.75;2.00;;;;;9.89;57.77;101180.94;5030089;28;10446;-65